Time;durP1;ratioP1;P1;durP2;ratioP2;P2;SDS_P1;SDS_P2;PMS_P1;PMS_P2;Temp;Humidity;BMP_temperature;BMP_pressure;BME280_temperature;BME280_humidity;BME280_pressure;Samples;Min_cycle;Max_cycle;Signal;HPM_P1;HPM_P2
2023/10/15 00:00:30;;;;;;;11.33;1.80;;;;;;;;;;5092810;28;20447;-59
2023/10/15 00:02:57;;;;;;;6.83;1.30;;;;;;;;;;5092679;28;20937;-58
2023/10/15 00:05:26;;;;;;;3.33;1.27;;;;;;;;;;5092518;28;20542;-59
2023/10/15 00:07:53;;;;;;;5.00;1.47;;;;;;;;;;5092427;28;20532;-59
2023/10/15 00:10:21;;;;;;;6.17;2.50;;;;;;;;;;5092660;28;20878;-59
2023/10/15 00:12:50;;;;;;;8.77;1.90;;;;;;;;;;5092645;28;20442;-59
2023/10/15 00:15:18;;;;;;;3.10;1.33;;;;;;;;;;5092561;28;20449;-59
2023/10/15 00:17:46;;;;;;;10.67;1.93;;;;;;;;;;5092295;28;20482;-59
2023/10/15 00:20:16;;;;;;;9.53;1.47;;;;;;;;;;5092414;28;20472;-59
2023/10/15 00:22:44;;;;;;;8.17;1.77;;;;;;;;;;5093565;28;20443;-58
2023/10/15 00:25:13;;;;;;;5.80;1.50;;;;;;;;;;5096218;28;20534;-58
2023/10/15 00:27:40;;;;;;;3.83;1.73;;;;;;;;;;5096148;28;20499;-59
2023/10/15 00:30:12;;;;;;;10.97;1.47;;;;;;;;;;5096065;28;20474;-59
2023/10/15 00:32:40;;;;;;;2.63;1.57;;;;;;;;;;5095939;28;20504;-59
2023/10/15 00:35:07;;;;;;;7.00;1.40;;;;;;;;;;5096077;28;20438;-59
2023/10/15 00:37:35;;;;;;;7.33;1.60;;;;;;;;;;5095898;28;20493;-58
2023/10/15 00:40:04;;;;;;;7.40;1.57;;;;;;;;;;5095904;28;20492;-59
2023/10/15 00:42:31;;;;;;;5.73;1.73;;;;;;;;;;5095766;28;20450;-59
2023/10/15 00:44:58;;;;;;;5.20;1.97;;;;;;;;;;5095646;28;20443;-59
2023/10/15 00:47:34;;;;;;;6.53;2.07;;;;;;;;;;5095883;28;20446;-58
2023/10/15 00:50:07;;;;;;;4.20;1.50;;;;;;;;;;5095583;28;20925;-59
2023/10/15 00:52:37;;;;;;;3.50;1.87;;;;;;;;;;5095642;28;20453;-59
2023/10/15 00:55:07;;;;;;;6.33;1.80;;;;;;;;;;5095576;28;20446;-58
2023/10/15 00:57:42;;;;;;;5.07;1.80;;;;;;;;;;5095405;28;20513;-59
2023/10/15 01:00:37;;;;;;;7.47;2.63;;;;;;;;;;5095617;28;20453;-58
2023/10/15 01:02:58;;;;;;;3.40;1.07;;;;;;;;;;5095245;28;20952;-59
2023/10/15 01:05:25;;;;;;;9.90;1.50;;;;;;;;;;5095356;28;20451;-59
2023/10/15 01:07:54;;;;;;;6.33;1.57;;;;;;;;;;5095055;28;20561;-58
2023/10/15 01:10:31;;;;;;;4.40;1.57;;;;;;;;;;5095436;28;20446;-58
2023/10/15 01:13:10;;;;;;;2.67;1.63;;;;;;;;;;5095419;28;20533;-58
2023/10/15 01:15:42;;;;;;;4.07;1.60;;;;;;;;;;5095218;28;20434;-59
2023/10/15 01:18:10;;;;;;;4.53;1.40;;;;;;;;;;5094999;28;20512;-59
2023/10/15 01:20:40;;;;;;;3.73;1.97;;;;;;;;;;5095236;28;20442;-58
2023/10/15 01:23:06;;;;;;;7.20;2.20;;;;;;;;;;5095141;28;20461;-59
2023/10/15 01:25:35;;;;;;;2.97;1.30;;;;;;;;;;5095060;28;20530;-59
2023/10/15 01:28:03;;;;;;;5.00;1.70;;;;;;;;;;5094961;28;20450;-59
2023/10/15 01:30:35;;;;;;;7.93;3.20;;;;;;;;;;5094885;28;20798;-59
2023/10/15 01:33:06;;;;;;;5.33;2.30;;;;;;;;;;5094605;28;20836;-59
2023/10/15 01:35:32;;;;;;;7.17;2.53;;;;;;;;;;5094897;28;20474;-59
2023/10/15 01:38:09;;;;;;;5.40;1.83;;;;;;;;;;5094746;28;20485;-59
2023/10/15 01:40:40;;;;;;;5.70;1.47;;;;;;;;;;5094756;28;20442;-60
2023/10/15 01:43:14;;;;;;;4.03;1.53;;;;;;;;;;5094654;28;20929;-60
2023/10/15 01:45:47;;;;;;;5.37;1.50;;;;;;;;;;5094711;28;20485;-60
2023/10/15 01:48:17;;;;;;;9.53;1.67;;;;;;;;;;5094675;28;20446;-59
2023/10/15 01:50:49;;;;;;;7.67;1.70;;;;;;;;;;5094577;28;20447;-59
2023/10/15 01:53:16;;;;;;;9.47;1.83;;;;;;;;;;5094434;28;20442;-59
2023/10/15 01:55:53;;;;;;;4.33;2.50;;;;;;;;;;5094131;28;20442;-60
2023/10/15 01:58:24;;;;;;;8.47;2.93;;;;;;;;;;5094384;28;20482;-59
2023/10/15 02:00:51;;;;;;;5.90;2.10;;;;;;;;;;5094281;28;20507;-60
2023/10/15 02:03:18;;;;;;;4.50;1.80;;;;;;;;;;5094263;28;20473;-60
2023/10/15 02:05:45;;;;;;;3.73;1.23;;;;;;;;;;5094620;28;20476;-59
2023/10/15 02:08:13;;;;;;;5.40;1.80;;;;;;;;;;5093929;28;20480;-59
2023/10/15 02:10:45;;;;;;;6.60;1.70;;;;;;;;;;5094000;28;20989;-59
2023/10/15 02:13:15;;;;;;;4.40;1.60;;;;;;;;;;5094185;28;20482;-59
2023/10/15 02:15:42;;;;;;;5.50;1.70;;;;;;;;;;5094293;28;20543;-59
2023/10/15 02:18:13;;;;;;;5.87;1.73;;;;;;;;;;5093953;28;20883;-59
2023/10/15 02:20:47;;;;;;;2.83;1.40;;;;;;;;;;5093925;28;20442;-59
2023/10/15 02:23:15;;;;;;;4.37;2.07;;;;;;;;;;5094078;28;21040;-59
2023/10/15 02:25:46;;;;;;;9.13;1.90;;;;;;;;;;5093959;28;20446;-59
2023/10/15 02:28:20;;;;;;;7.33;1.83;;;;;;;;;;5094264;28;20486;-59
2023/10/15 02:30:47;;;;;;;8.20;2.43;;;;;;;;;;5093753;28;20473;-59
2023/10/15 02:33:17;;;;;;;6.87;2.40;;;;;;;;;;5093564;28;20442;-59
2023/10/15 02:35:47;;;;;;;5.03;1.67;;;;;;;;;;5093923;28;20438;-59
2023/10/15 02:38:14;;;;;;;11.33;2.23;;;;;;;;;;5093629;28;20527;-59
2023/10/15 02:41:05;;;;;;;3.40;1.40;;;;;;;;;;5093367;28;20447;-59
2023/10/15 02:43:36;;;;;;;4.33;1.37;;;;;;;;;;5093540;28;20531;-59
2023/10/15 02:46:17;;;;;;;4.87;2.20;;;;;;;;;;5092897;28;20454;-59
2023/10/15 02:48:44;;;;;;;9.50;1.97;;;;;;;;;;5093511;28;20449;-59
2023/10/15 02:51:11;;;;;;;8.10;1.80;;;;;;;;;;5093419;28;20529;-59
2023/10/15 02:53:40;;;;;;;5.50;1.53;;;;;;;;;;5093450;28;20486;-59
2023/10/15 02:56:13;;;;;;;11.50;1.97;;;;;;;;;;5093370;28;20834;-59
2023/10/15 02:58:43;;;;;;;5.63;1.73;;;;;;;;;;5093353;28;20876;-59
2023/10/15 03:01:17;;;;;;;10.20;1.50;;;;;;;;;;5093343;28;20470;-59
2023/10/15 03:03:48;;;;;;;4.33;1.90;;;;;;;;;;5093361;28;20447;-59
2023/10/15 03:06:18;;;;;;;3.50;1.30;;;;;;;;;;5093282;28;20438;-59
2023/10/15 03:08:45;;;;;;;12.63;2.20;;;;;;;;;;5092947;28;20471;-59
2023/10/15 03:11:13;;;;;;;4.83;1.70;;;;;;;;;;5093283;28;20445;-59
2023/10/15 03:13:51;;;;;;;8.63;2.30;;;;;;;;;;5093203;28;20581;-59
2023/10/15 03:16:19;;;;;;;4.27;1.63;;;;;;;;;;5093167;28;20514;-59
2023/10/15 03:18:48;;;;;;;6.63;2.93;;;;;;;;;;5093028;28;20514;-58
2023/10/15 03:21:19;;;;;;;7.57;1.90;;;;;;;;;;5092992;28;20454;-59
2023/10/15 03:23:48;;;;;;;3.80;1.80;;;;;;;;;;5093225;28;20446;-59
2023/10/15 03:26:18;;;;;;;5.17;1.50;;;;;;;;;;5093253;28;20518;-59
2023/10/15 03:28:50;;;;;;;4.10;1.60;;;;;;;;;;5093013;28;20454;-59
2023/10/15 03:31:17;;;;;;;5.60;1.80;;;;;;;;;;5093028;28;20582;-59
2023/10/15 03:36:26;;;;;;;7.80;1.67;;;;;;;;;;5093087;28;20439;-58
2023/10/15 03:38:54;;;;;;;9.93;1.80;;;;;;;;;;5092906;28;20845;-59
2023/10/15 03:41:27;;;;;;;3.50;1.77;;;;;;;;;;5092931;28;20954;-59
2023/10/15 03:44:01;;;;;;;8.97;1.90;;;;;;;;;;5092818;28;20844;-59
2023/10/15 03:46:33;;;;;;;11.20;2.27;;;;;;;;;;5092950;28;20499;-59
2023/10/15 03:49:04;;;;;;;8.50;2.10;;;;;;;;;;5092930;28;20446;-59
2023/10/15 03:51:31;;;;;;;4.93;1.40;;;;;;;;;;5092924;28;20446;-59
2023/10/15 03:54:06;;;;;;;5.73;1.90;;;;;;;;;;5092740;28;20445;-59
2023/10/15 03:56:34;;;;;;;5.13;1.50;;;;;;;;;;5092705;28;20524;-59
2023/10/15 03:59:02;;;;;;;6.23;3.83;;;;;;;;;;5096011;28;20489;-59
2023/10/15 04:01:30;;;;;;;6.13;1.93;;;;;;;;;;5096704;28;20442;-59
2023/10/15 04:03:56;;;;;;;4.97;1.90;;;;;;;;;;5096686;28;20530;-59
2023/10/15 04:06:23;;;;;;;9.43;2.37;;;;;;;;;;5096586;28;20480;-59
2023/10/15 04:09:10;;;;;;;5.73;1.90;;;;;;;;;;5096441;28;20475;-59
2023/10/15 04:11:43;;;;;;;5.00;1.83;;;;;;;;;;5096678;28;20537;-59
2023/10/15 04:14:21;;;;;;;7.17;2.07;;;;;;;;;;5096763;28;20474;-59
2023/10/15 04:16:48;;;;;;;7.73;1.90;;;;;;;;;;5096261;28;20450;-59
2023/10/15 04:19:17;;;;;;;5.20;1.40;;;;;;;;;;5096282;28;20503;-59
2023/10/15 04:21:45;;;;;;;17.07;1.83;;;;;;;;;;5096125;28;20779;-59
2023/10/15 04:24:14;;;;;;;4.53;1.50;;;;;;;;;;5096278;28;20442;-59
2023/10/15 04:26:42;;;;;;;3.80;1.50;;;;;;;;;;5096248;28;20478;-59
2023/10/15 04:29:17;;;;;;;11.03;1.80;;;;;;;;;;5096086;28;20446;-59
2023/10/15 04:31:47;;;;;;;13.43;2.20;;;;;;;;;;5096037;28;20539;-59
2023/10/15 04:34:18;;;;;;;3.83;1.70;;;;;;;;;;5095841;28;20443;-59
2023/10/15 04:36:45;;;;;;;6.50;2.00;;;;;;;;;;5096085;28;20537;-59
2023/10/15 04:39:12;;;;;;;3.70;1.63;;;;;;;;;;5095895;28;20482;-60
2023/10/15 04:41:39;;;;;;;2.60;1.33;;;;;;;;;;5096149;28;20449;-59
2023/10/15 04:44:11;;;;;;;6.07;1.77;;;;;;;;;;5095887;28;20457;-59
2023/10/15 04:46:42;;;;;;;3.57;1.37;;;;;;;;;;5095609;28;20450;-59
2023/10/15 04:49:15;;;;;;;4.07;1.63;;;;;;;;;;5095856;28;20454;-59
2023/10/15 04:51:43;;;;;;;3.60;2.03;;;;;;;;;;5095780;28;20541;-60
2023/10/15 04:54:10;;;;;;;4.87;1.70;;;;;;;;;;5095646;28;20474;-59
2023/10/15 04:56:37;;;;;;;4.23;1.50;;;;;;;;;;5095510;28;20442;-59
2023/10/15 04:59:05;;;;;;;6.03;1.83;;;;;;;;;;5095375;28;20482;-59
2023/10/15 05:01:33;;;;;;;8.10;1.97;;;;;;;;;;5095698;28;20454;-59
2023/10/15 05:04:01;;;;;;;4.30;2.57;;;;;;;;;;5095498;28;20537;-60
2023/10/15 05:06:29;;;;;;;2.97;1.80;;;;;;;;;;5095436;28;20457;-59
2023/10/15 05:08:57;;;;;;;5.80;1.70;;;;;;;;;;5094786;28;20798;-59
2023/10/15 05:11:24;;;;;;;5.93;2.43;;;;;;;;;;5095557;28;20458;-59
2023/10/15 05:13:51;;;;;;;5.13;2.23;;;;;;;;;;5095086;28;20485;-59
2023/10/15 05:16:19;;;;;;;6.47;1.43;;;;;;;;;;5095293;28;20538;-59
2023/10/15 05:18:47;;;;;;;8.07;1.97;;;;;;;;;;5095150;28;20478;-59
2023/10/15 05:21:14;;;;;;;6.70;2.10;;;;;;;;;;5095044;28;20991;-59
2023/10/15 05:23:42;;;;;;;4.83;2.10;;;;;;;;;;5095102;28;20533;-59
2023/10/15 05:26:09;;;;;;;3.17;1.93;;;;;;;;;;5095096;28;20439;-59
2023/10/15 05:28:36;;;;;;;6.50;2.43;;;;;;;;;;5095113;28;20450;-59
2023/10/15 05:31:03;;;;;;;5.23;2.43;;;;;;;;;;5094979;28;20450;-59
2023/10/15 05:33:30;;;;;;;7.10;1.80;;;;;;;;;;5094891;28;20447;-60
2023/10/15 05:35:57;;;;;;;7.00;2.40;;;;;;;;;;5094869;28;20537;-60
2023/10/15 05:38:26;;;;;;;6.03;1.57;;;;;;;;;;5094678;28;20569;-59
2023/10/15 05:40:58;;;;;;;12.17;2.73;;;;;;;;;;5094542;28;20530;-60
2023/10/15 05:43:25;;;;;;;9.60;2.70;;;;;;;;;;5094801;28;20473;-59
2023/10/15 05:45:52;;;;;;;8.97;2.50;;;;;;;;;;5094754;28;20874;-60
2023/10/15 05:48:19;;;;;;;15.20;2.53;;;;;;;;;;5094573;28;20442;-59
2023/10/15 05:50:48;;;;;;;5.00;2.20;;;;;;;;;;5094485;28;20474;-59
2023/10/15 05:53:15;;;;;;;6.50;1.93;;;;;;;;;;5094343;28;20447;-60
2023/10/15 05:55:42;;;;;;;8.27;2.20;;;;;;;;;;5094592;28;20810;-59
2023/10/15 05:58:10;;;;;;;8.93;2.07;;;;;;;;;;5094371;28;20485;-60
2023/10/15 06:00:39;;;;;;;9.60;1.80;;;;;;;;;;5094384;28;20443;-59
2023/10/15 06:03:06;;;;;;;9.63;2.20;;;;;;;;;;5094248;28;20869;-59
2023/10/15 06:05:33;;;;;;;5.07;1.73;;;;;;;;;;5094228;28;20443;-59
2023/10/15 06:08:00;;;;;;;9.43;2.40;;;;;;;;;;5093878;28;20498;-59
2023/10/15 06:10:29;;;;;;;6.37;2.67;;;;;;;;;;5094266;28;20474;-60
2023/10/15 06:12:56;;;;;;;5.10;1.70;;;;;;;;;;5094153;28;20443;-59
2023/10/15 06:15:26;;;;;;;3.93;1.60;;;;;;;;;;5094050;28;20439;-59
2023/10/15 06:17:53;;;;;;;5.33;2.20;;;;;;;;;;5094017;28;20476;-59
2023/10/15 06:20:20;;;;;;;5.67;1.77;;;;;;;;;;5092939;28;20879;-59
2023/10/15 06:22:49;;;;;;;10.27;2.40;;;;;;;;;;5094046;28;20937;-59
2023/10/15 06:25:17;;;;;;;4.03;1.70;;;;;;;;;;5093946;28;20447;-59
2023/10/15 06:27:44;;;;;;;9.27;2.20;;;;;;;;;;5093869;28;20446;-59
2023/10/15 06:30:16;;;;;;;8.77;2.30;;;;;;;;;;5093759;28;20446;-59
2023/10/15 06:32:44;;;;;;;5.83;2.03;;;;;;;;;;5093902;28;20478;-59
2023/10/15 06:35:14;;;;;;;4.67;2.13;;;;;;;;;;5093803;28;20905;-59
2023/10/15 06:37:41;;;;;;;3.77;1.57;;;;;;;;;;5093429;28;20989;-59
2023/10/15 06:40:09;;;;;;;4.07;2.03;;;;;;;;;;5093666;28;20450;-59
2023/10/15 06:42:36;;;;;;;5.33;1.90;;;;;;;;;;5093469;28;21003;-60
2023/10/15 06:45:06;;;;;;;4.50;1.53;;;;;;;;;;5093561;28;20854;-59
2023/10/15 06:47:33;;;;;;;10.07;2.20;;;;;;;;;;5093419;28;20867;-59
2023/10/15 06:50:06;;;;;;;5.73;3.00;;;;;;;;;;5093632;28;20443;-59
2023/10/15 06:52:33;;;;;;;9.13;3.90;;;;;;;;;;5093439;28;20534;-59
2023/10/15 06:55:00;;;;;;;7.77;2.93;;;;;;;;;;5093433;28;20486;-60
2023/10/15 06:57:27;;;;;;;6.53;2.17;;;;;;;;;;5093319;28;20446;-59
2023/10/15 06:59:54;;;;;;;5.90;2.23;;;;;;;;;;5093146;28;21032;-59
2023/10/15 07:02:21;;;;;;;9.87;1.60;;;;;;;;;;5093195;28;20926;-60
2023/10/15 07:04:48;;;;;;;4.63;2.10;;;;;;;;;;5093110;28;20504;-60
2023/10/15 07:07:16;;;;;;;6.80;3.33;;;;;;;;;;5093175;28;20502;-60
2023/10/15 07:09:43;;;;;;;5.57;1.93;;;;;;;;;;5093232;28;20453;-60
2023/10/15 07:12:10;;;;;;;10.03;1.77;;;;;;;;;;5093027;28;20523;-60
2023/10/15 07:14:39;;;;;;;7.43;2.10;;;;;;;;;;5092923;28;20904;-59
2023/10/15 07:17:06;;;;;;;6.20;1.70;;;;;;;;;;5093209;28;20530;-59
2023/10/15 07:19:34;;;;;;;7.27;1.70;;;;;;;;;;5093097;28;20846;-59
2023/10/15 07:22:01;;;;;;;5.03;2.17;;;;;;;;;;5092997;28;20534;-59
2023/10/15 07:24:31;;;;;;;4.87;1.47;;;;;;;;;;5092920;28;20960;-59
2023/10/15 07:26:58;;;;;;;5.70;1.90;;;;;;;;;;5092803;28;20826;-59
2023/10/15 07:29:27;;;;;;;8.23;2.03;;;;;;;;;;5093361;28;20541;-60
2023/10/15 07:31:55;;;;;;;6.40;2.47;;;;;;;;;;5094287;28;20537;-59
2023/10/15 07:34:22;;;;;;;4.43;1.70;;;;;;;;;;5097025;28;20450;-60
2023/10/15 07:36:50;;;;;;;4.87;1.80;;;;;;;;;;5097073;28;20442;-59
2023/10/15 07:39:17;;;;;;;4.47;1.40;;;;;;;;;;5096868;28;20543;-59
2023/10/15 07:41:46;;;;;;;6.03;1.83;;;;;;;;;;5096829;28;20442;-59
2023/10/15 07:44:14;;;;;;;14.80;2.07;;;;;;;;;;5096990;28;20469;-59
2023/10/15 07:46:42;;;;;;;9.60;2.27;;;;;;;;;;5097088;28;20997;-59
2023/10/15 07:49:12;;;;;;;5.43;1.80;;;;;;;;;;5096881;28;20442;-59
2023/10/15 07:51:39;;;;;;;4.43;2.00;;;;;;;;;;5097098;28;20439;-59
2023/10/15 07:54:06;;;;;;;4.13;1.73;;;;;;;;;;5096667;28;20442;-59
2023/10/15 07:56:34;;;;;;;3.90;1.70;;;;;;;;;;5096859;28;20445;-59
2023/10/15 07:59:04;;;;;;;5.63;1.63;;;;;;;;;;5096726;28;20534;-59
2023/10/15 08:01:31;;;;;;;4.97;1.50;;;;;;;;;;5096490;28;20932;-60
2023/10/15 08:03:59;;;;;;;3.10;1.60;;;;;;;;;;5096918;28;20474;-59
2023/10/15 08:06:26;;;;;;;5.33;1.57;;;;;;;;;;5096366;28;20512;-59
2023/10/15 08:08:52;;;;;;;5.53;1.50;;;;;;;;;;5096543;28;20564;-60
2023/10/15 08:11:20;;;;;;;7.93;1.70;;;;;;;;;;5096628;28;20442;-59
2023/10/15 08:13:46;;;;;;;3.83;1.70;;;;;;;;;;5096601;28;20442;-59
2023/10/15 08:16:15;;;;;;;7.50;2.40;;;;;;;;;;5096387;28;20462;-59
2023/10/15 08:18:42;;;;;;;4.37;1.93;;;;;;;;;;5096050;28;21011;-59
2023/10/15 08:21:11;;;;;;;10.63;1.90;;;;;;;;;;5096075;28;20961;-59
2023/10/15 08:23:38;;;;;;;6.23;2.10;;;;;;;;;;5096296;28;20449;-59
2023/10/15 08:26:06;;;;;;;3.90;1.50;;;;;;;;;;5096218;28;20500;-59
2023/10/15 08:28:33;;;;;;;6.07;1.40;;;;;;;;;;5096152;28;20457;-59
2023/10/15 08:31:00;;;;;;;4.40;1.70;;;;;;;;;;5096023;28;20489;-59
2023/10/15 08:33:28;;;;;;;5.90;1.73;;;;;;;;;;5095933;28;20529;-59
2023/10/15 08:35:56;;;;;;;1.97;1.33;;;;;;;;;;5095748;28;20537;-59
2023/10/15 08:38:23;;;;;;;1.87;1.23;;;;;;;;;;5095923;28;20443;-60
2023/10/15 08:40:53;;;;;;;3.60;2.03;;;;;;;;;;5095955;28;20443;-59
2023/10/15 08:43:23;;;;;;;3.23;1.20;;;;;;;;;;5094824;28;20538;-59
2023/10/15 08:45:51;;;;;;;4.30;1.30;;;;;;;;;;5095670;28;20470;-59
2023/10/15 08:48:19;;;;;;;3.17;1.43;;;;;;;;;;5095588;28;20470;-59
2023/10/15 08:50:48;;;;;;;2.90;1.60;;;;;;;;;;5095856;28;20529;-59
2023/10/15 08:53:15;;;;;;;9.13;6.87;;;;;;;;;;5095449;28;21019;-59
2023/10/15 08:55:42;;;;;;;6.37;4.30;;;;;;;;;;5095605;28;20541;-59
2023/10/15 08:58:10;;;;;;;2.20;1.30;;;;;;;;;;5095491;28;20474;-59
2023/10/15 09:00:37;;;;;;;3.33;1.20;;;;;;;;;;5095329;28;21064;-60
2023/10/15 09:03:05;;;;;;;5.60;1.70;;;;;;;;;;5095287;28;20443;-59
2023/10/15 09:05:33;;;;;;;4.97;1.83;;;;;;;;;;5095502;28;21009;-59
2023/10/15 09:08:06;;;;;;;3.00;1.20;;;;;;;;;;5094819;28;20985;-59
2023/10/15 09:10:33;;;;;;;2.40;1.00;;;;;;;;;;5095251;28;20921;-60
2023/10/15 09:13:00;;;;;;;3.00;1.30;;;;;;;;;;5095205;28;20446;-59
2023/10/15 09:15:29;;;;;;;5.00;1.37;;;;;;;;;;5095036;28;20443;-60
2023/10/15 09:17:56;;;;;;;2.63;1.47;;;;;;;;;;5095521;28;20446;-59
2023/10/15 09:20:27;;;;;;;2.63;1.80;;;;;;;;;;5095142;28;20822;-59
2023/10/15 09:22:55;;;;;;;4.37;1.57;;;;;;;;;;5095149;28;20487;-60
2023/10/15 09:25:24;;;;;;;2.23;1.33;;;;;;;;;;5095057;28;20455;-59
2023/10/15 09:27:52;;;;;;;4.90;1.30;;;;;;;;;;5095000;28;20444;-59
2023/10/15 09:30:22;;;;;;;4.17;1.90;;;;;;;;;;5095030;28;20801;-60
2023/10/15 09:32:49;;;;;;;3.57;1.40;;;;;;;;;;5094937;28;20439;-59
2023/10/15 09:35:16;;;;;;;1.83;1.13;;;;;;;;;;5095024;28;20930;-59
2023/10/15 09:37:44;;;;;;;3.47;1.27;;;;;;;;;;5094825;28;20869;-59
2023/10/15 09:40:18;;;;;;;3.73;1.00;;;;;;;;;;5094553;28;20478;-60
2023/10/15 09:42:49;;;;;;;2.80;1.10;;;;;;;;;;5094917;28;20447;-59
2023/10/15 09:45:18;;;;;;;4.27;1.47;;;;;;;;;;5094724;28;20435;-59
2023/10/15 09:47:48;;;;;;;2.50;1.07;;;;;;;;;;5094893;28;20439;-59
2023/10/15 09:50:16;;;;;;;4.20;0.90;;;;;;;;;;5094489;28;20496;-59
2023/10/15 09:52:44;;;;;;;2.30;0.90;;;;;;;;;;5094263;28;20443;-60
2023/10/15 09:55:12;;;;;;;2.27;1.00;;;;;;;;;;5094348;28;20590;-59
2023/10/15 09:57:40;;;;;;;2.77;1.17;;;;;;;;;;5094344;28;20814;-59
2023/10/15 10:00:19;;;;;;;1.60;1.00;;;;;;;;;;5094206;28;20612;-59
2023/10/15 10:02:51;;;;;;;3.10;1.30;;;;;;;;;;5094315;28;21023;-59
2023/10/15 10:05:41;;;;;;;4.93;1.10;;;;;;;;;;5093974;28;20942;-59
2023/10/15 10:08:16;;;;;;;2.43;1.63;;;;;;;;;;5093965;28;20478;-59
2023/10/15 10:11:10;;;;;;;2.37;1.43;;;;;;;;;;5094071;28;20956;-59
2023/10/15 10:13:51;;;;;;;2.00;1.03;;;;;;;;;;5058150;28;20533;-59
2023/10/15 10:16:23;;;;;;;2.83;1.90;;;;;;;;;;5094130;28;20458;-60
2023/10/15 10:18:50;;;;;;;3.17;1.50;;;;;;;;;;5094032;28;20438;-60
2023/10/15 10:21:19;;;;;;;2.17;1.57;;;;;;;;;;5093981;28;20447;-59
2023/10/15 10:23:46;;;;;;;2.77;1.23;;;;;;;;;;5093798;28;20454;-60
2023/10/15 10:26:14;;;;;;;3.53;1.47;;;;;;;;;;5093901;28;20457;-59
2023/10/15 10:28:41;;;;;;;1.10;0.80;;;;;;;;;;5093987;28;20783;-60
2023/10/15 10:31:09;;;;;;;1.47;1.10;;;;;;;;;;5093724;28;20860;-60
2023/10/15 10:33:41;;;;;;;4.07;1.20;;;;;;;;;;5093916;28;20449;-59
2023/10/15 10:36:14;;;;;;;2.50;0.93;;;;;;;;;;5093642;28;20465;-59
2023/10/15 10:38:42;;;;;;;4.50;1.17;;;;;;;;;;5093430;28;20443;-60
2023/10/15 10:41:13;;;;;;;1.40;1.20;;;;;;;;;;5093606;28;20837;-59
2023/10/15 10:43:41;;;;;;;6.20;1.20;;;;;;;;;;5093663;28;20450;-59
2023/10/15 10:46:08;;;;;;;3.93;1.00;;;;;;;;;;5093551;28;20450;-59
2023/10/15 10:48:37;;;;;;;5.50;1.17;;;;;;;;;;5093455;28;20534;-59
2023/10/15 10:51:18;;;;;;;2.20;0.93;;;;;;;;;;5093292;28;20523;-60
2023/10/15 10:54:04;;;;;;;3.77;1.40;;;;;;;;;;5093551;28;20450;-60
2023/10/15 10:56:46;;;;;;;4.37;1.20;;;;;;;;;;5093272;28;20529;-59
2023/10/15 10:59:13;;;;;;;1.17;0.87;;;;;;;;;;5092853;28;20914;-59
2023/10/15 11:01:41;;;;;;;2.00;1.13;;;;;;;;;;5093184;28;20503;-60
2023/10/15 11:04:08;;;;;;;2.40;0.80;;;;;;;;;;5093444;28;20442;-59
2023/10/15 11:06:37;;;;;;;3.47;0.90;;;;;;;;;;5092589;28;20447;-60
2023/10/15 11:09:09;;;;;;;2.73;1.10;;;;;;;;;;5093260;28;20534;-60
2023/10/15 11:11:36;;;;;;;2.27;1.00;;;;;;;;;;5093120;28;20472;-60
2023/10/15 11:14:03;;;;;;;3.07;0.80;;;;;;;;;;5093087;28;20438;-59
2023/10/15 11:16:33;;;;;;;1.20;0.90;;;;;;;;;;5092945;28;20936;-59
2023/10/15 11:19:00;;;;;;;2.87;0.80;;;;;;;;;;5093052;28;20445;-59
2023/10/15 11:21:26;;;;;;;1.07;0.77;;;;;;;;;;5093177;28;20868;-59
2023/10/15 11:23:57;;;;;;;1.87;1.00;;;;;;;;;;5093036;28;20438;-59
2023/10/15 11:26:23;;;;;;;2.30;0.90;;;;;;;;;;5092889;28;20489;-59
2023/10/15 11:28:50;;;;;;;2.20;0.90;;;;;;;;;;5093188;28;20858;-60
2023/10/15 11:31:20;;;;;;;2.47;0.90;;;;;;;;;;5093096;28;20849;-61
2023/10/15 11:33:47;;;;;;;3.03;1.10;;;;;;;;;;5092992;28;20439;-60
2023/10/15 11:36:17;;;;;;;1.30;0.80;;;;;;;;;;5092875;28;20439;-60
2023/10/15 11:38:44;;;;;;;3.77;1.30;;;;;;;;;;5092655;28;20439;-60
2023/10/15 11:41:12;;;;;;;4.70;1.10;;;;;;;;;;5092438;28;20594;-60
2023/10/15 11:43:43;;;;;;;3.40;1.10;;;;;;;;;;5092843;28;20533;-61
2023/10/15 11:46:10;;;;;;;1.67;0.73;;;;;;;;;;5092774;28;20817;-60
2023/10/15 11:48:37;;;;;;;2.37;0.73;;;;;;;;;;5092705;28;20447;-60
2023/10/15 11:51:06;;;;;;;1.33;0.70;;;;;;;;;;5092717;28;20442;-61
2023/10/15 11:53:33;;;;;;;1.40;0.80;;;;;;;;;;5092599;28;20525;-61
2023/10/15 11:56:02;;;;;;;1.67;0.90;;;;;;;;;;5092492;28;20450;-60
2023/10/15 11:58:31;;;;;;;1.30;1.20;;;;;;;;;;5092822;28;20507;-60
2023/10/15 12:00:59;;;;;;;1.20;0.70;;;;;;;;;;5092878;28;20485;-60
2023/10/15 12:03:26;;;;;;;1.80;0.90;;;;;;;;;;5092615;28;20446;-61
2023/10/15 12:05:53;;;;;;;1.63;0.70;;;;;;;;;;5092553;28;20533;-61
2023/10/15 12:08:21;;;;;;;1.47;0.80;;;;;;;;;;5092520;28;20509;-60
2023/10/15 12:10:49;;;;;;;1.40;0.80;;;;;;;;;;5092752;28;20442;-61
2023/10/15 12:13:16;;;;;;;3.20;0.80;;;;;;;;;;5092888;28;20449;-61
2023/10/15 12:15:45;;;;;;;2.23;1.00;;;;;;;;;;5092560;28;20442;-60
2023/10/15 12:18:13;;;;;;;1.90;0.90;;;;;;;;;;5092574;28;20510;-61
2023/10/15 12:20:39;;;;;;;2.87;1.30;;;;;;;;;;5096135;28;20822;-61
2023/10/15 12:23:07;;;;;;;1.50;1.40;;;;;;;;;;5096435;28;20449;-61
2023/10/15 12:25:38;;;;;;;1.80;0.90;;;;;;;;;;5096238;28;20447;-61
2023/10/15 12:28:05;;;;;;;1.87;1.40;;;;;;;;;;5096192;28;20451;-61
2023/10/15 12:30:32;;;;;;;2.17;1.10;;;;;;;;;;5096084;28;20818;-61
2023/10/15 12:33:00;;;;;;;1.17;1.07;;;;;;;;;;5096009;28;20446;-60
2023/10/15 12:35:28;;;;;;;2.40;1.00;;;;;;;;;;5095807;28;20442;-61
2023/10/15 12:38:01;;;;;;;3.43;1.00;;;;;;;;;;5096042;28;20443;-61
2023/10/15 12:40:31;;;;;;;1.63;1.10;;;;;;;;;;5095910;28;20482;-61
2023/10/15 12:42:59;;;;;;;1.40;0.83;;;;;;;;;;5095801;28;20541;-60
2023/10/15 12:45:26;;;;;;;0.97;0.80;;;;;;;;;;5095911;28;20505;-61
2023/10/15 12:47:53;;;;;;;2.10;1.00;;;;;;;;;;5095581;28;20534;-61
2023/10/15 12:50:23;;;;;;;1.80;1.10;;;;;;;;;;5095826;28;20446;-61
2023/10/15 12:52:52;;;;;;;2.27;1.23;;;;;;;;;;5095583;28;20596;-61
2023/10/15 12:55:19;;;;;;;1.27;0.90;;;;;;;;;;5095427;28;20442;-60
2023/10/15 12:57:47;;;;;;;2.35;1.35;;;;;;;;;;5094658;28;20448;-60
2023/10/15 13:00:17;;;;;;;2.33;0.93;;;;;;;;;;5095416;28;20663;-60
2023/10/15 13:02:44;;;;;;;1.20;0.90;;;;;;;;;;5095607;28;20442;-61
2023/10/15 13:05:13;;;;;;;1.00;0.90;;;;;;;;;;5095458;28;20442;-60
2023/10/15 13:07:41;;;;;;;2.23;1.03;;;;;;;;;;5095129;28;20471;-60
2023/10/15 13:10:09;;;;;;;1.00;0.90;;;;;;;;;;5095293;28;20453;-60
2023/10/15 13:12:37;;;;;;;3.60;1.00;;;;;;;;;;5095469;28;20934;-60
2023/10/15 13:15:04;;;;;;;2.63;1.00;;;;;;;;;;5095322;28;21006;-60
2023/10/15 13:17:31;;;;;;;1.47;0.70;;;;;;;;;;5095241;28;20449;-60
2023/10/15 13:19:59;;;;;;;0.87;0.70;;;;;;;;;;5095131;28;20480;-60
2023/10/15 13:22:26;;;;;;;2.90;1.00;;;;;;;;;;5095156;28;20449;-59
2023/10/15 13:24:54;;;;;;;1.77;0.70;;;;;;;;;;5094830;28;20457;-59
2023/10/15 13:27:21;;;;;;;2.10;0.87;;;;;;;;;;5094805;28;20530;-60
2023/10/15 13:29:48;;;;;;;1.60;0.83;;;;;;;;;;5094689;28;20529;-59
2023/10/15 13:32:16;;;;;;;2.40;0.93;;;;;;;;;;5095021;28;20438;-60
2023/10/15 13:34:43;;;;;;;3.93;1.13;;;;;;;;;;5094829;28;20474;-59
2023/10/15 13:37:10;;;;;;;1.27;0.77;;;;;;;;;;5094693;28;20447;-59
2023/10/15 13:39:37;;;;;;;0.80;0.60;;;;;;;;;;5094649;28;20442;-59
2023/10/15 13:42:06;;;;;;;0.90;0.70;;;;;;;;;;5094020;28;20844;-59
2023/10/15 13:44:33;;;;;;;2.50;0.70;;;;;;;;;;5094584;28;20508;-59
2023/10/15 13:47:00;;;;;;;1.83;0.83;;;;;;;;;;5094211;28;20453;-60
2023/10/15 13:49:27;;;;;;;2.80;0.83;;;;;;;;;;5093865;28;20500;-59
2023/10/15 13:51:54;;;;;;;2.37;0.80;;;;;;;;;;5094341;28;20549;-59
2023/10/15 13:54:21;;;;;;;1.23;0.93;;;;;;;;;;5094426;28;20557;-59
2023/10/15 13:56:48;;;;;;;2.50;0.80;;;;;;;;;;5094104;28;20442;-59
2023/10/15 13:59:17;;;;;;;1.97;0.90;;;;;;;;;;5094499;28;20529;-60
2023/10/15 14:01:44;;;;;;;1.30;0.80;;;;;;;;;;5094284;28;20482;-59
2023/10/15 14:04:12;;;;;;;1.67;0.70;;;;;;;;;;5094282;28;20651;-59
2023/10/15 14:06:39;;;;;;;1.00;0.90;;;;;;;;;;5093937;28;20449;-60
2023/10/15 14:09:08;;;;;;;1.87;0.80;;;;;;;;;;5094035;28;20525;-59
2023/10/15 14:11:37;;;;;;;1.30;0.93;;;;;;;;;;5094250;28;20779;-59
2023/10/15 14:14:04;;;;;;;1.63;0.80;;;;;;;;;;5094194;28;20478;-59
2023/10/15 14:16:33;;;;;;;1.13;1.00;;;;;;;;;;5094096;28;20937;-59
2023/10/15 14:19:00;;;;;;;1.90;0.70;;;;;;;;;;5093967;28;20805;-59
2023/10/15 14:21:27;;;;;;;1.00;0.83;;;;;;;;;;5094338;28;20832;-60
2023/10/15 14:23:54;;;;;;;1.33;1.00;;;;;;;;;;5093702;28;20465;-59
2023/10/15 14:26:22;;;;;;;1.57;1.10;;;;;;;;;;5093965;28;20450;-60
2023/10/15 14:28:50;;;;;;;1.53;0.93;;;;;;;;;;5093876;28;20818;-59
2023/10/15 14:31:17;;;;;;;1.13;0.67;;;;;;;;;;5093721;28;20447;-59
2023/10/15 14:33:46;;;;;;;1.80;0.80;;;;;;;;;;5093539;28;20453;-59
2023/10/15 14:36:13;;;;;;;3.70;0.83;;;;;;;;;;5093539;28;20533;-59
2023/10/15 14:38:40;;;;;;;1.50;0.80;;;;;;;;;;5093842;28;20526;-59
2023/10/15 14:41:08;;;;;;;1.73;0.80;;;;;;;;;;5092865;28;20876;-59
2023/10/15 14:43:36;;;;;;;1.20;1.10;;;;;;;;;;5093586;28;20449;-59
2023/10/15 14:46:03;;;;;;;2.60;1.40;;;;;;;;;;5093331;28;20997;-59
2023/10/15 14:48:30;;;;;;;1.20;0.90;;;;;;;;;;5093466;28;20734;-59
2023/10/15 14:51:00;;;;;;;1.93;0.97;;;;;;;;;;5093400;28;20537;-59
2023/10/15 14:53:28;;;;;;;3.30;0.70;;;;;;;;;;5093530;28;20447;-59
2023/10/15 14:55:55;;;;;;;1.40;0.80;;;;;;;;;;5093282;28;20434;-59